Time;durP1;ratioP1;P1;durP2;ratioP2;P2;SDS_P1;SDS_P2;PMS_P1;PMS_P2;Temp;Humidity;BMP_temperature;BMP_pressure;BME280_temperature;BME280_humidity;BME280_pressure;Samples;Min_cycle;Max_cycle;Signal;HPM_P1;HPM_P2
2023/04/11 00:00:14;;;;;;;4.57;1.80;;;11.40;99.90;;;;;;4175594;28;20029;-71
2023/04/11 00:02:14;;;;;;;3.58;1.60;;;11.40;99.90;;;;;;4174548;28;20104;-70
2023/04/11 00:04:16;;;;;;;6.72;1.85;;;11.40;99.90;;;;;;4169483;28;20032;-71
2023/04/11 00:06:16;;;;;;;4.22;1.30;;;11.50;99.90;;;;;;4167218;28;20087;-71
2023/04/11 00:08:17;;;;;;;7.25;1.65;;;11.50;99.90;;;;;;4161157;28;20030;-70
2023/04/11 00:10:17;;;;;;;5.63;1.98;;;11.50;99.90;;;;;;4160459;28;20028;-70
2023/04/11 00:12:18;;;;;;;5.13;1.48;;;11.50;99.90;;;;;;4161105;28;20087;-70
2023/04/11 00:14:19;;;;;;;5.18;1.67;;;11.50;99.90;;;;;;4154247;28;20088;-71
2023/04/11 00:16:19;;;;;;;8.65;2.50;;;11.50;99.90;;;;;;4141429;28;20034;-70
2023/04/11 00:18:21;;;;;;;8.60;2.38;;;11.40;99.90;;;;;;4159790;28;20030;-70
2023/04/11 00:20:22;;;;;;;7.40;2.25;;;11.50;99.90;;;;;;4160108;28;20048;-71
2023/04/11 00:22:23;;;;;;;10.65;2.50;;;11.50;99.90;;;;;;4164952;28;20034;-70
2023/04/11 00:24:24;;;;;;;8.23;2.20;;;11.40;99.90;;;;;;4157771;28;20037;-70
2023/04/11 00:26:26;;;;;;;6.20;2.45;;;11.40;99.90;;;;;;4158417;28;20033;-71
2023/04/11 00:28:26;;;;;;;12.15;2.83;;;11.40;99.90;;;;;;4158553;28;20018;-70
2023/04/11 00:30:27;;;;;;;11.63;2.63;;;11.40;99.90;;;;;;4163428;28;20054;-70
2023/04/11 00:32:27;;;;;;;5.60;1.52;;;11.40;99.90;;;;;;4150198;28;20045;-71
2023/04/11 00:34:28;;;;;;;8.93;2.33;;;11.40;99.90;;;;;;4154897;28;20037;-70
2023/04/11 00:36:30;;;;;;;9.70;2.15;;;11.40;99.90;;;;;;4151210;28;20092;-70
2023/04/11 00:38:31;;;;;;;9.05;2.53;;;11.30;99.90;;;;;;4157405;28;20464;-70
2023/04/11 00:40:31;;;;;;;9.18;2.42;;;11.40;99.90;;;;;;4147609;28;20026;-70
2023/04/11 00:42:32;;;;;;;9.20;2.20;;;11.30;99.90;;;;;;4159385;28;20034;-70
2023/04/11 00:44:34;;;;;;;12.27;3.08;;;11.30;99.90;;;;;;4152777;28;20168;-70
2023/04/11 00:46:35;;;;;;;8.05;2.22;;;11.30;99.90;;;;;;4159643;28;20033;-70
2023/04/11 00:48:36;;;;;;;4.75;2.03;;;11.30;99.90;;;;;;4167194;28;20472;-70
2023/04/11 00:50:40;;;;;;;9.85;2.42;;;11.30;99.90;;;;;;4158944;28;20068;-70
2023/04/11 00:52:45;;;;;;;10.23;2.70;;;11.30;99.90;;;;;;4169999;28;20068;-71
2023/04/11 00:54:46;;;;;;;11.40;3.03;;;11.30;99.90;;;;;;4164859;28;20029;-69
2023/04/11 00:56:47;;;;;;;11.65;2.80;;;11.30;99.90;;;;;;4167599;28;20036;-70
2023/04/11 00:58:48;;;;;;;11.73;2.78;;;11.30;99.90;;;;;;4165147;28;20030;-70
2023/04/11 01:00:50;;;;;;;9.40;2.63;;;11.20;99.90;;;;;;4168649;28;20034;-70
2023/04/11 01:02:51;;;;;;;11.00;2.55;;;11.20;99.90;;;;;;4165433;28;20065;-70
2023/04/11 01:04:52;;;;;;;9.95;2.95;;;11.30;99.90;;;;;;4166424;28;20040;-70
2023/04/11 01:06:57;;;;;;;15.45;3.42;;;11.30;99.90;;;;;;4164456;28;20392;-70
2023/04/11 01:08:59;;;;;;;17.23;3.42;;;11.20;99.90;;;;;;4169783;28;20121;-69
2023/04/11 01:11:01;;;;;;;15.38;3.30;;;11.20;99.90;;;;;;4170461;28;20037;-69
2023/04/11 01:13:02;;;;;;;10.60;3.05;;;11.10;99.90;;;;;;4170489;28;20033;-70
2023/04/11 01:15:03;;;;;;;17.08;3.80;;;11.20;99.90;;;;;;4168092;28;20163;-70
2023/04/11 01:17:06;;;;;;;12.63;2.97;;;11.20;99.90;;;;;;4164220;28;20499;-70
2023/04/11 01:19:07;;;;;;;15.80;3.20;;;11.20;99.90;;;;;;4170412;28;20028;-70
2023/04/11 01:21:08;;;;;;;12.43;2.90;;;11.20;99.90;;;;;;4169662;28;20030;-70
2023/04/11 01:23:10;;;;;;;14.75;3.58;;;11.20;99.90;;;;;;4174304;28;20116;-68
2023/04/11 01:25:12;;;;;;;17.25;3.80;;;11.20;99.90;;;;;;4165990;28;20178;-71
2023/04/11 01:27:13;;;;;;;;;;;11.20;99.90;;;;;;4172790;28;20036;-70
2023/04/11 01:29:13;;;;;;;14.10;3.85;;;11.10;99.90;;;;;;4173475;28;19908;-69
2023/04/11 01:31:14;;;;;;;20.33;3.88;;;11.10;99.90;;;;;;4163856;28;20080;-70
2023/04/11 01:33:15;;;;;;;20.85;4.35;;;11.10;99.90;;;;;;4173071;28;20036;-69
2023/04/11 01:35:17;;;;;;;17.73;4.25;;;11.00;99.90;;;;;;4174391;28;20049;-70
2023/04/11 01:37:18;;;;;;;13.30;3.33;;;11.00;99.90;;;;;;4172988;28;20377;-69
2023/04/11 01:39:19;;;;;;;16.38;4.10;;;11.10;99.90;;;;;;4171200;28;20042;-69
2023/04/11 01:41:21;;;;;;;20.17;3.95;;;11.00;99.90;;;;;;4169936;28;20033;-69
2023/04/11 01:43:21;;;;;;;15.80;3.87;;;11.00;99.90;;;;;;4171294;28;20388;-69
2023/04/11 01:45:24;;;;;;;16.05;3.92;;;11.00;99.90;;;;;;4167779;28;20037;-70
2023/04/11 01:47:25;;;;;;;;;;;11.00;99.90;;;;;;4167927;28;20029;-69
2023/04/11 01:49:25;;;;;;;17.35;3.83;;;11.00;99.90;;;;;;4171518;28;19909;-69
2023/04/11 01:51:26;;;;;;;24.20;4.32;;;11.00;99.90;;;;;;4166707;28;20087;-67
2023/04/11 01:53:27;;;;;;;16.75;3.83;;;11.00;99.90;;;;;;4167371;28;20551;-68
2023/04/11 01:55:27;;;;;;;15.70;3.30;;;11.00;99.90;;;;;;4165877;28;20044;-68
2023/04/11 01:57:28;;;;;;;13.38;3.20;;;11.00;99.90;;;;;;4175971;28;20464;-69
2023/04/11 01:59:29;;;;;;;16.75;3.83;;;11.10;99.90;;;;;;4177412;28;20041;-70
2023/04/11 02:01:30;;;;;;;19.02;4.35;;;11.10;99.90;;;;;;4168449;28;20037;-69
2023/04/11 02:03:31;;;;;;;18.80;4.55;;;11.00;99.90;;;;;;4166483;28;20029;-69
2023/04/11 02:05:32;;;;;;;18.73;4.10;;;11.00;99.90;;;;;;4173364;28;20040;-69
2023/04/11 02:07:32;;;;;;;17.35;3.95;;;11.00;99.90;;;;;;4178553;28;20029;-69
2023/04/11 02:09:33;;;;;;;21.02;4.55;;;11.00;99.90;;;;;;4173947;28;20040;-70
2023/04/11 02:11:33;;;;;;;19.15;4.30;;;11.00;99.90;;;;;;4174424;28;20043;-69
2023/04/11 02:13:35;;;;;;;21.00;3.72;;;11.00;99.90;;;;;;4166235;28;20087;-69
2023/04/11 02:15:35;;;;;;;18.85;4.18;;;11.00;99.90;;;;;;4176686;28;20040;-69
2023/04/11 02:17:36;;;;;;;15.93;3.88;;;11.00;99.90;;;;;;4172045;28;20040;-69
2023/04/11 02:19:39;;;;;;;25.48;4.75;;;11.00;99.90;;;;;;4172259;28;20057;-70
2023/04/11 02:21:40;;;;;;;20.63;5.45;;;11.00;99.90;;;;;;4167414;28;20361;-68
2023/04/11 02:23:41;;;;;;;23.60;4.72;;;10.90;99.90;;;;;;4175870;28;20028;-69
2023/04/11 02:25:41;;;;;;;20.30;4.18;;;10.90;99.90;;;;;;4173604;28;20026;-69
2023/04/11 02:27:42;;;;;;;18.48;4.90;;;10.90;99.90;;;;;;4177250;28;20043;-69
2023/04/11 02:29:43;;;;;;;28.02;5.00;;;10.90;99.90;;;;;;4172738;28;20476;-69
2023/04/11 02:31:43;;;;;;;14.98;4.63;;;10.90;99.90;;;;;;4171101;28;20033;-68
2023/04/11 02:33:44;;;;;;;27.13;5.40;;;10.90;99.90;;;;;;4170918;28;20069;-69
2023/04/11 02:35:45;;;;;;;24.20;5.13;;;10.90;99.90;;;;;;4173792;28;20480;-69
2023/04/11 02:37:46;;;;;;;24.65;5.78;;;10.80;99.90;;;;;;4167085;28;20047;-69
2023/04/11 02:39:46;;;;;;;25.58;5.20;;;10.80;99.90;;;;;;4167929;28;20495;-69
2023/04/11 02:41:47;;;;;;;17.83;4.70;;;10.80;99.90;;;;;;4168099;28;20052;-69
2023/04/11 02:43:48;;;;;;;24.95;5.22;;;10.80;99.90;;;;;;4167774;28;20037;-69
2023/04/11 02:45:48;;;;;;;24.55;5.15;;;10.80;99.90;;;;;;4167669;28;20463;-68
2023/04/11 02:47:49;;;;;;;21.50;4.75;;;10.80;99.90;;;;;;4175874;28;20033;-69
2023/04/11 02:49:50;;;;;;;20.48;5.28;;;10.80;99.90;;;;;;4171000;28;20131;-69
2023/04/11 02:51:50;;;;;;;28.08;5.68;;;10.80;99.90;;;;;;4176987;28;20527;-69
2023/04/11 02:53:51;;;;;;;28.00;5.60;;;10.80;99.90;;;;;;4174777;28;20044;-69
2023/04/11 02:55:52;;;;;;;24.83;5.15;;;10.70;99.90;;;;;;4169794;28;20528;-69
2023/04/11 02:57:53;;;;;;;22.17;5.13;;;10.70;99.90;;;;;;4173331;28;20029;-64
2023/04/11 02:59:54;;;;;;;19.35;4.30;;;10.70;99.90;;;;;;4171219;28;20120;-64
2023/04/11 03:01:58;;;;;;;25.65;5.22;;;10.70;99.90;;;;;;4167791;28;20381;-64
2023/04/11 03:03:58;;;;;;;28.55;5.50;;;10.80;99.90;;;;;;4163414;28;20041;-63
2023/04/11 03:05:59;;;;;;;18.48;4.70;;;10.70;99.90;;;;;;4170911;28;20130;-64
2023/04/11 03:07:59;;;;;;;24.60;5.35;;;10.70;99.90;;;;;;4174196;28;20041;-65
2023/04/11 03:10:00;;;;;;;20.63;4.75;;;10.70;99.90;;;;;;4170812;28;20041;-64
2023/04/11 03:12:00;;;;;;;25.13;5.57;;;10.70;99.90;;;;;;4175669;28;20056;-64
2023/04/11 03:14:01;;;;;;;21.48;5.55;;;10.70;99.90;;;;;;4172491;28;20087;-64
2023/04/11 03:16:02;;;;;;;24.73;5.95;;;10.70;99.90;;;;;;4167647;28;20044;-64
2023/04/11 03:18:03;;;;;;;28.90;5.47;;;10.70;99.90;;;;;;4174231;28;20094;-64
2023/04/11 03:20:06;;;;;;;25.90;5.45;;;10.70;99.90;;;;;;4174574;28;20072;-66
2023/04/11 03:22:09;;;;;;;17.80;5.07;;;10.60;99.90;;;;;;4171601;28;21989;-64
2023/04/11 03:24:11;;;;;;;22.77;5.40;;;10.70;99.90;;;;;;4168592;28;20037;-63
2023/04/11 03:26:13;;;;;;;20.70;5.20;;;10.60;99.90;;;;;;4172629;28;20051;-64
2023/04/11 03:28:14;;;;;;;28.50;6.30;;;10.60;99.90;;;;;;4166766;28;20037;-64
2023/04/11 03:30:14;;;;;;;22.67;5.75;;;10.50;99.90;;;;;;4167980;28;20039;-64
2023/04/11 03:32:15;;;;;;;18.90;4.75;;;10.60;99.90;;;;;;4172648;28;20033;-64
2023/04/11 03:34:16;;;;;;;25.67;6.30;;;10.60;99.90;;;;;;4170816;28;20033;-64
2023/04/11 03:36:17;;;;;;;25.65;5.95;;;10.60;99.90;;;;;;4164566;28;20134;-64
2023/04/11 03:38:19;;;;;;;17.17;5.60;;;10.50;99.90;;;;;;4176029;28;20049;-64
2023/04/11 03:40:20;;;;;;;20.25;5.10;;;10.50;99.90;;;;;;4170146;28;20492;-63
2023/04/11 03:42:20;;;;;;;26.45;5.95;;;10.50;99.90;;;;;;4173090;28;20025;-63
2023/04/11 03:44:21;;;;;;;18.73;4.78;;;10.40;99.90;;;;;;4175594;28;20029;-64
2023/04/11 03:46:22;;;;;;;27.83;5.85;;;10.50;99.90;;;;;;4169037;28;20388;-63
2023/04/11 03:48:25;;;;;;;22.90;5.78;;;10.50;99.90;;;;;;4169082;28;20104;-63
2023/04/11 03:50:26;;;;;;;23.60;4.80;;;10.50;99.90;;;;;;4171083;28;20079;-63
2023/04/11 03:52:26;;;;;;;17.83;5.10;;;10.40;99.90;;;;;;4167439;28;20465;-64
2023/04/11 03:54:27;;;;;;;23.38;5.20;;;10.50;99.90;;;;;;4168482;28;20048;-63
2023/04/11 03:56:27;;;;;;;22.98;5.13;;;10.40;99.90;;;;;;4167409;28;20033;-63
2023/04/11 03:58:28;;;;;;;19.95;5.03;;;10.40;99.90;;;;;;4167689;28;20025;-63
2023/04/11 04:00:29;;;;;;;20.55;5.50;;;10.40;99.90;;;;;;4166989;28;20037;-63
2023/04/11 04:02:29;;;;;;;19.35;4.88;;;10.40;99.90;;;;;;4171411;28;20083;-66
2023/04/11 04:04:32;;;;;;;19.02;4.97;;;10.40;99.90;;;;;;4170051;28;20138;-64
2023/04/11 04:06:32;;;;;;;18.17;4.60;;;10.30;99.90;;;;;;4174664;28;20381;-63
2023/04/11 04:08:33;;;;;;;21.48;4.90;;;10.40;99.90;;;;;;4165837;28;20018;-63
2023/04/11 04:10:33;;;;;;;12.73;3.53;;;10.30;99.90;;;;;;4169615;28;20550;-64
2023/04/11 04:12:34;;;;;;;26.52;5.43;;;10.40;99.90;;;;;;4174583;28;20114;-64
2023/04/11 04:14:35;;;;;;;25.25;4.78;;;10.30;99.90;;;;;;4165640;28;20082;-64
2023/04/11 04:16:35;;;;;;;15.98;4.40;;;10.30;99.90;;;;;;4164335;28;20026;-64
2023/04/11 04:18:36;;;;;;;20.83;4.10;;;10.30;99.90;;;;;;4164403;28;20022;-64
2023/04/11 04:20:36;;;;;;;20.48;4.72;;;10.30;99.90;;;;;;4175037;28;20029;-63
2023/04/11 04:22:37;;;;;;;22.27;4.25;;;10.20;99.90;;;;;;4174922;28;20056;-64
2023/04/11 04:24:40;;;;;;;18.77;4.72;;;10.20;99.90;;;;;;4169463;28;20041;-64
2023/04/11 04:26:41;;;;;;;23.65;4.80;;;10.20;99.90;;;;;;4159897;28;20311;-65
2023/04/11 04:28:45;;;;;;;22.58;4.85;;;10.10;99.90;;;;;;4170190;28;20043;-64
2023/04/11 04:30:49;;;;;;;22.55;4.20;;;10.10;99.90;;;;;;4167268;28;20033;-64
2023/04/11 04:32:53;;;;;;;25.25;4.75;;;10.00;99.90;;;;;;4163241;28;20124;-64
2023/04/11 04:34:54;;;;;;;22.63;4.00;;;10.00;99.90;;;;;;4167288;28;20029;-64
2023/04/11 04:36:58;;;;;;;22.08;4.55;;;10.00;99.90;;;;;;4166553;28;20358;-64
2023/04/11 04:39:00;;;;;;;12.77;3.55;;;10.00;99.90;;;;;;4164026;28;20040;-64
2023/04/11 04:41:04;;;;;;;18.67;4.40;;;10.00;99.90;;;;;;4167637;28;20404;-65
2023/04/11 04:43:07;;;;;;;23.30;4.03;;;9.90;99.90;;;;;;4167190;28;20366;-64
2023/04/11 04:45:10;;;;;;;18.40;3.75;;;9.90;99.90;;;;;;4171949;28;20033;-65
2023/04/11 04:47:10;;;;;;;20.80;4.18;;;10.00;99.90;;;;;;4170300;28;20032;-64
2023/04/11 04:49:11;;;;;;;20.05;4.65;;;9.90;99.90;;;;;;4171253;28;20028;-64
2023/04/11 04:51:11;;;;;;;18.67;3.90;;;9.90;99.90;;;;;;4167467;28;20041;-67
2023/04/11 04:53:12;;;;;;;17.63;4.68;;;9.90;99.90;;;;;;4172305;28;20035;-65
2023/04/11 04:55:13;;;;;;;20.50;3.58;;;9.90;99.90;;;;;;4169210;28;20040;-64
2023/04/11 04:57:14;;;;;;;19.55;3.90;;;9.90;99.90;;;;;;4169992;28;20560;-64
2023/04/11 04:59:15;;;;;;;11.40;3.40;;;9.90;99.90;;;;;;4171768;28;20030;-64
2023/04/11 05:01:16;;;;;;;21.65;4.00;;;9.90;99.90;;;;;;4171215;28;20033;-64
2023/04/11 05:03:19;;;;;;;19.83;4.22;;;9.90;99.90;;;;;;4166907;28;20033;-64
2023/04/11 05:05:20;;;;;;;25.70;4.50;;;9.80;99.90;;;;;;4168087;28;20063;-64
2023/04/11 05:07:20;;;;;;;20.10;3.55;;;9.80;99.90;;;;;;4170005;28;20037;-63
2023/04/11 05:09:21;;;;;;;18.60;4.50;;;9.80;99.90;;;;;;4172935;28;20091;-64
2023/04/11 05:11:22;;;;;;;20.85;4.15;;;9.80;99.90;;;;;;4169579;28;20055;-63
2023/04/11 05:13:23;;;;;;;13.18;4.03;;;9.80;99.90;;;;;;4166863;28;20041;-64
2023/04/11 05:15:23;;;;;;;27.52;3.97;;;9.80;99.90;;;;;;4171204;28;20037;-63
2023/04/11 05:17:25;;;;;;;23.58;5.03;;;9.80;99.90;;;;;;4168609;28;20029;-64
2023/04/11 05:19:25;;;;;;;15.25;3.72;;;9.80;99.90;;;;;;4173768;28;20025;-64
2023/04/11 05:21:26;;;;;;;17.58;3.75;;;9.80;99.90;;;;;;4166423;28;20547;-64
2023/04/11 05:23:26;;;;;;;32.50;5.60;;;9.80;99.90;;;;;;4166286;28;20446;-64
2023/04/11 05:25:27;;;;;;;17.60;4.18;;;9.80;99.90;;;;;;4162656;28;20504;-64
2023/04/11 05:27:27;;;;;;;22.58;4.28;;;9.80;99.90;;;;;;4171835;28;20379;-63
2023/04/11 05:29:28;;;;;;;11.95;2.85;;;9.80;99.90;;;;;;4173728;28;20033;-64
2023/04/11 05:31:29;;;;;;;22.15;5.05;;;9.90;99.90;;;;;;4170751;28;20040;-64
2023/04/11 05:33:30;;;;;;;24.50;4.75;;;9.80;99.90;;;;;;4172426;28;20033;-64
2023/04/11 05:35:30;;;;;;;21.63;4.60;;;9.90;99.90;;;;;;4176267;28;20138;-64
2023/04/11 05:37:31;;;;;;;16.27;4.05;;;9.90;99.90;;;;;;4173430;28;20045;-65
2023/04/11 05:39:31;;;;;;;18.00;4.55;;;9.90;99.90;;;;;;4169400;28;20190;-64
2023/04/11 05:41:32;;;;;;;21.27;4.47;;;9.90;99.90;;;;;;4172247;28;20060;-64
2023/04/11 05:43:33;;;;;;;26.83;5.05;;;9.90;99.90;;;;;;4174145;28;20041;-64
2023/04/11 05:45:33;;;;;;;21.85;3.90;;;9.80;99.90;;;;;;4174092;28;20060;-65
2023/04/11 05:47:34;;;;;;;19.35;3.95;;;9.80;99.90;;;;;;4177084;28;20025;-64
2023/04/11 05:49:35;;;;;;;22.25;4.72;;;9.80;99.90;;;;;;4174792;28;20048;-64
2023/04/11 05:51:35;;;;;;;20.85;4.28;;;9.80;99.90;;;;;;4174508;28;20044;-64
2023/04/11 05:53:36;;;;;;;19.92;3.95;;;9.90;99.90;;;;;;4167957;28;20021;-64
2023/04/11 05:55:36;;;;;;;19.08;4.10;;;9.90;99.90;;;;;;4174403;28;20037;-64
2023/04/11 05:57:37;;;;;;;13.52;3.10;;;9.80;99.90;;;;;;4171928;28;20365;-64
2023/04/11 05:59:37;;;;;;;15.25;4.07;;;9.90;99.90;;;;;;4174950;28;20053;-63
2023/04/11 06:01:38;;;;;;;22.27;4.20;;;9.90;99.90;;;;;;4174085;28;20040;-64
2023/04/11 06:03:39;;;;;;;20.42;3.88;;;9.90;99.90;;;;;;4172791;28;20025;-64
2023/04/11 06:05:40;;;;;;;16.45;3.85;;;9.90;99.90;;;;;;4175602;28;20108;-64
2023/04/11 06:07:40;;;;;;;22.38;4.93;;;9.90;99.90;;;;;;4177137;28;20045;-64
2023/04/11 06:09:41;;;;;;;18.98;4.15;;;9.90;99.90;;;;;;4172405;28;20033;-64
2023/04/11 06:11:42;;;;;;;22.60;4.57;;;9.90;99.90;;;;;;4166607;28;20132;-64
2023/04/11 06:13:42;;;;;;;24.58;4.47;;;9.90;99.90;;;;;;4159433;28;20049;-64
2023/04/11 06:15:43;;;;;;;13.55;3.58;;;9.90;99.90;;;;;;4172498;28;20052;-65
2023/04/11 06:17:44;;;;;;;18.90;4.10;;;9.80;99.90;;;;;;4174161;28;20112;-65
2023/04/11 06:19:44;;;;;;;25.45;4.50;;;9.80;99.90;;;;;;4167003;28;20044;-64
2023/04/11 06:21:45;;;;;;;21.08;4.28;;;9.80;99.90;;;;;;4145265;28;20124;-64
2023/04/11 06:23:45;;;;;;;18.92;4.03;;;9.80;99.90;;;;;;4157256;28;20095;-63
2023/04/11 06:25:46;;;;;;;19.00;3.88;;;9.80;99.90;;;;;;4161722;28;20038;-64
2023/04/11 06:27:47;;;;;;;11.63;3.28;;;9.80;99.90;;;;;;4166822;28;20041;-64
2023/04/11 06:29:48;;;;;;;22.73;4.53;;;9.90;99.90;;;;;;4104022;28;20053;-65
2023/04/11 06:31:48;;;;;;;16.40;3.55;;;10.00;99.90;;;;;;4147682;28;20033;-65
2023/04/11 06:33:49;;;;;;;18.13;4.03;;;10.10;99.90;;;;;;4160294;28;20061;-64
2023/04/11 06:35:50;;;;;;;24.23;4.68;;;10.20;99.90;;;;;;4154005;28;20041;-64
2023/04/11 06:37:51;;;;;;;17.35;3.72;;;10.30;99.90;;;;;;4163223;28;20420;-64
2023/04/11 06:39:51;;;;;;;15.30;3.78;;;10.30;99.90;;;;;;4164880;28;20488;-65
2023/04/11 06:41:52;;;;;;;17.13;3.72;;;10.30;99.90;;;;;;4157977;28;20060;-64
2023/04/11 06:43:53;;;;;;;19.02;3.92;;;10.40;99.90;;;;;;4164674;28;20167;-64
2023/04/11 06:45:53;;;;;;;14.60;3.42;;;10.60;99.90;;;;;;4163781;28;20523;-64
2023/04/11 06:47:54;;;;;;;17.52;3.60;;;10.70;99.90;;;;;;4148684;28;20064;-65
2023/04/11 06:49:54;;;;;;;12.38;3.58;;;10.80;99.90;;;;;;4166634;28;20055;-65
2023/04/11 06:51:55;;;;;;;19.30;4.05;;;10.80;99.90;;;;;;4164828;28;20041;-65
2023/04/11 06:53:56;;;;;;;15.88;3.47;;;10.80;99.90;;;;;;4166721;28;20145;-65
2023/04/11 06:55:58;;;;;;;15.15;3.58;;;10.90;99.90;;;;;;4160844;28;20026;-64
2023/04/11 06:58:00;;;;;;;14.77;3.60;;;10.90;99.90;;;;;;4167536;28;20040;-64
2023/04/11 07:00:00;;;;;;;26.15;4.35;;;10.90;99.90;;;;;;4163426;28;20557;-64
2023/04/11 07:02:01;;;;;;;22.85;3.67;;;10.80;99.90;;;;;;4162454;28;20056;-64
2023/04/11 07:04:02;;;;;;;19.40;3.65;;;10.80;99.90;;;;;;4164151;28;20395;-64
2023/04/11 07:06:03;;;;;;;17.52;3.78;;;10.80;99.90;;;;;;4166164;28;20739;-64
2023/04/11 07:08:03;;;;;;;18.90;4.63;;;10.80;99.90;;;;;;4161348;28;20041;-64
2023/04/11 07:10:05;;;;;;;14.45;3.83;;;10.80;99.90;;;;;;4164197;28;20037;-66
2023/04/11 07:12:05;;;;;;;20.00;4.10;;;10.80;99.90;;;;;;4162960;28;20038;-64
2023/04/11 07:14:06;;;;;;;16.83;3.47;;;10.90;99.90;;;;;;4162864;28;20088;-65
2023/04/11 07:16:07;;;;;;;16.77;3.85;;;10.90;99.90;;;;;;4163072;28;20115;-65
2023/04/11 07:18:08;;;;;;;21.70;4.28;;;10.90;99.90;;;;;;4162242;28;20477;-64
2023/04/11 07:20:10;;;;;;;24.17;4.22;;;10.90;99.90;;;;;;4163284;28;20082;-65
2023/04/11 07:22:10;;;;;;;19.67;3.77;;;10.90;99.90;;;;;;4163880;28;20083;-64
2023/04/11 07:24:12;;;;;;;13.25;3.40;;;11.00;99.90;;;;;;4161269;28;22236;-64
2023/04/11 07:26:13;;;;;;;23.15;4.88;;;11.10;99.90;;;;;;4162451;28;20030;-65
2023/04/11 07:28:14;;;;;;;19.00;3.92;;;11.20;99.90;;;;;;4166497;28;20036;-65
2023/04/11 07:30:15;;;;;;;12.88;3.03;;;11.30;99.90;;;;;;4162575;28;20033;-64
2023/04/11 07:32:15;;;;;;;16.88;3.92;;;11.30;99.90;;;;;;4161605;28;20041;-65
2023/04/11 07:34:16;;;;;;;11.35;3.65;;;11.20;99.90;;;;;;4165449;28;20029;-65
2023/04/11 07:36:17;;;;;;;21.40;4.35;;;11.30;99.90;;;;;;4160761;28;20605;-64
2023/04/11 07:38:26;;;;;;;13.55;3.08;;;11.40;99.90;;;;;;4163860;28;20132;-64
2023/04/11 07:40:27;;;;;;;12.55;3.22;;;11.40;99.90;;;;;;4165452;28;20033;-64
2023/04/11 07:42:28;;;;;;;16.92;4.05;;;11.50;99.90;;;;;;4162277;28;20374;-64
2023/04/11 07:44:28;;;;;;;14.13;3.75;;;11.60;99.90;;;;;;4163437;28;20088;-64
2023/04/11 07:46:29;;;;;;;17.42;3.45;;;11.70;99.90;;;;;;4161122;28;20412;-64
2023/04/11 07:48:30;;;;;;;22.33;3.50;;;11.70;99.90;;;;;;4146291;28;20596;-64
2023/04/11 07:50:31;;;;;;;16.77;3.50;;;11.70;99.90;;;;;;4163335;28;20187;-64
2023/04/11 07:52:32;;;;;;;9.57;3.25;;;11.80;99.90;;;;;;4165422;28;20083;-64
2023/04/11 07:54:32;;;;;;;12.65;2.95;;;11.90;99.90;;;;;;4159952;28;20499;-64
2023/04/11 07:56:33;;;;;;;12.23;3.38;;;12.00;99.90;;;;;;4162777;28;20032;-64
2023/04/11 07:58:34;;;;;;;15.77;3.78;;;12.00;99.90;;;;;;4163933;28;20087;-64
2023/04/11 08:00:34;;;;;;;9.27;2.92;;;12.10;99.90;;;;;;4162917;28;20071;-64
2023/04/11 08:02:36;;;;;;;22.20;3.83;;;12.20;99.90;;;;;;4163690;28;20033;-64
2023/04/11 08:04:37;;;;;;;12.32;3.53;;;12.30;99.90;;;;;;4150765;28;20535;-64
2023/04/11 08:06:38;;;;;;;19.52;3.67;;;12.30;99.90;;;;;;4162231;28;20033;-64
2023/04/11 08:08:38;;;;;;;12.02;2.83;;;12.30;99.90;;;;;;4166021;28;20025;-64
2023/04/11 08:10:39;;;;;;;8.95;2.90;;;12.40;99.90;;;;;;4161798;28;20040;-64
2023/04/11 08:12:39;;;;;;;11.55;3.15;;;12.50;99.90;;;;;;4162807;28;20116;-64
2023/04/11 08:14:40;;;;;;;7.65;2.88;;;12.70;99.90;;;;;;4160082;28;20030;-63
2023/04/11 08:16:41;;;;;;;17.27;4.00;;;12.80;99.90;;;;;;4157794;28;20033;-63
2023/04/11 08:18:41;;;;;;;12.30;3.05;;;12.80;99.90;;;;;;4166597;28;20120;-63
2023/04/11 08:20:42;;;;;;;11.75;3.13;;;12.80;99.90;;;;;;4161589;28;20037;-64
2023/04/11 08:22:45;;;;;;;12.93;3.20;;;12.80;99.90;;;;;;4164255;28;20025;-63
2023/04/11 08:24:46;;;;;;;13.38;2.75;;;12.80;99.90;;;;;;4164410;28;20029;-64
2023/04/11 08:26:46;;;;;;;8.38;2.63;;;12.90;99.90;;;;;;4161159;28;21391;-64
2023/04/11 08:28:47;;;;;;;11.63;3.28;;;13.00;99.90;;;;;;4166856;28;20116;-63
2023/04/11 08:30:51;;;;;;;13.18;2.95;;;13.10;99.90;;;;;;4160923;28;20038;-64
2023/04/11 08:32:52;;;;;;;12.30;3.50;;;13.20;99.90;;;;;;4164156;28;20041;-64
2023/04/11 08:34:52;;;;;;;10.18;2.60;;;13.20;99.90;;;;;;4161201;28;20037;-63
2023/04/11 08:36:53;;;;;;;11.93;2.88;;;13.10;99.90;;;;;;4164718;28;20037;-63
2023/04/11 08:38:55;;;;;;;11.27;2.88;;;13.00;99.90;;;;;;4163576;28;20673;-63
2023/04/11 08:40:56;;;;;;;13.38;2.60;;;13.10;99.90;;;;;;4163046;28;20365;-63
2023/04/11 08:42:58;;;;;;;14.77;3.17;;;13.10;99.90;;;;;;4162563;28;20026;-63
2023/04/11 08:45:02;;;;;;;8.77;2.35;;;13.20;99.90;;;;;;4160472;28;20036;-63
2023/04/11 08:47:04;;;;;;;10.40;2.80;;;13.20;99.90;;;;;;4162234;28;20025;-64
2023/04/11 08:49:05;;;;;;;9.35;2.58;;;13.10;99.90;;;;;;4163759;28;20033;-63
2023/04/11 08:51:06;;;;;;;11.60;2.95;;;13.20;99.90;;;;;;4163321;28;20531;-63
2023/04/11 08:53:07;;;;;;;9.73;2.60;;;13.30;99.90;;;;;;4162411;28;20045;-63
2023/04/11 08:55:08;;;;;;;9.80;2.55;;;13.30;99.90;;;;;;4160776;28;20087;-64
2023/04/11 08:57:13;;;;;;;9.82;2.55;;;13.30;99.90;;;;;;4163370;28;20047;-63
2023/04/11 08:59:14;;;;;;;17.15;3.58;;;13.30;99.90;;;;;;4160940;28;20032;-63
2023/04/11 09:01:32;;;;;;;9.07;2.42;;;13.40;99.90;;;;;;4160766;28;20034;-64
2023/04/11 09:03:50;;;;;;;7.70;2.58;;;13.30;99.90;;;;;;4162873;28;20141;-63
2023/04/11 09:05:51;;;;;;;7.65;2.42;;;13.30;99.90;;;;;;4164014;28;20043;-63
2023/04/11 09:07:51;;;;;;;10.75;2.45;;;13.40;99.90;;;;;;4162033;28;21106;-63
2023/04/11 09:09:52;;;;;;;7.20;2.30;;;13.30;99.90;;;;;;4162299;28;20041;-63
2023/04/11 09:11:53;;;;;;;8.13;2.40;;;13.20;99.90;;;;;;4158310;28;20850;-63
2023/04/11 09:14:08;;;;;;;12.68;2.70;;;13.10;99.90;;;;;;4162886;28;20152;-63
2023/04/11 09:16:13;;;;;;;9.18;2.50;;;13.00;99.90;;;;;;4161524;28;20087;-63
2023/04/11 09:18:43;;;;;;;8.85;2.55;;;13.00;99.90;;;;;;4163951;28;20033;-63
2023/04/11 09:20:58;;;;;;;9.70;2.53;;;12.90;99.90;;;;;;4159684;28;20610;-63
2023/04/11 09:22:59;;;;;;;8.95;2.33;;;12.80;99.90;;;;;;4163030;28;20476;-63
2023/04/11 09:25:03;;;;;;;11.45;2.80;;;12.80;99.90;;;;;;4162067;28;20171;-63
2023/04/11 09:27:11;;;;;;;8.70;2.45;;;12.80;99.90;;;;;;4163087;28;20504;-63
2023/04/11 09:29:39;;;;;;;12.23;2.70;;;12.80;99.90;;;;;;4160798;28;20195;-63
2023/04/11 09:31:43;;;;;;;8.43;2.70;;;12.70;99.90;;;;;;4160975;28;20041;-63
2023/04/11 09:33:58;;;;;;;7.95;2.88;;;12.70;99.90;;;;;;4164241;28;20536;-63
2023/04/11 09:35:58;;;;;;;13.80;3.30;;;12.70;99.90;;;;;;4162806;28;20076;-62
2023/04/11 09:38:02;;;;;;;9.50;2.78;;;12.70;99.90;;;;;;4159123;28;20398;-63
2023/04/11 09:40:03;;;;;;;8.00;2.38;;;12.60;99.90;;;;;;4164584;28;20420;-63
2023/04/11 09:42:24;;;;;;;7.40;2.75;;;12.60;99.90;;;;;;4160955;28;20037;-63
2023/04/11 09:44:35;;;;;;;10.23;2.50;;;12.60;99.90;;;;;;4164141;28;20116;-63
2023/04/11 09:46:36;;;;;;;11.50;2.40;;;12.60;99.90;;;;;;4159340;28;20041;-63
2023/04/11 09:48:37;;;;;;;8.35;2.50;;;12.70;99.90;;;;;;4162764;28;20092;-63
2023/04/11 09:50:38;;;;;;;11.15;2.80;;;12.80;99.90;;;;;;4161329;28;20052;-63
2023/04/11 09:52:41;;;;;;;16.08;3.10;;;13.00;99.90;;;;;;4163210;28;20622;-63
2023/04/11 09:54:43;;;;;;;9.57;2.33;;;13.10;99.90;;;;;;4161874;28;20532;-63
2023/04/11 09:56:43;;;;;;;10.32;3.13;;;13.30;99.90;;;;;;4161951;28;20111;-62
2023/04/11 09:58:46;;;;;;;9.65;3.10;;;13.40;99.90;;;;;;4164510;28;20025;-63
2023/04/11 10:00:48;;;;;;;7.97;2.50;;;13.50;99.90;;;;;;4160963;28;20057;-64
2023/04/11 10:02:54;;;;;;;11.32;2.55;;;13.60;99.90;;;;;;4159777;28;20064;-63
2023/04/11 10:04:58;;;;;;;10.10;2.92;;;13.70;99.90;;;;;;4161809;28;20116;-63
2023/04/11 10:07:13;;;;;;;12.55;2.70;;;13.80;99.90;;;;;;4159823;28;20040;-63
2023/04/11 10:09:14;;;;;;;12.35;3.90;;;13.80;99.90;;;;;;4164297;28;20487;-63
2023/04/11 10:11:19;;;;;;;15.75;3.05;;;13.80;99.90;;;;;;4161972;28;20064;-63
2023/04/11 10:13:42;;;;;;;7.68;2.60;;;13.90;99.90;;;;;;4161422;28;20026;-63
2023/04/11 10:16:12;;;;;;;11.07;3.05;;;13.90;99.90;;;;;;4161957;28;20039;-63
2023/04/11 10:18:13;;;;;;;6.55;2.10;;;14.00;99.90;;;;;;4161736;28;20065;-63
2023/04/11 10:20:36;;;;;;;8.30;2.50;;;14.10;99.90;;;;;;4164717;28;20070;-63
2023/04/11 10:22:40;;;;;;;7.25;2.25;;;14.10;99.90;;;;;;4164503;28;20045;-63
2023/04/11 10:25:19;;;;;;;8.60;2.47;;;14.20;99.90;;;;;;4167154;28;20042;-63
2023/04/11 10:27:52;;;;;;;7.35;2.30;;;14.20;99.90;;;;;;4162405;28;20129;-63
2023/04/11 10:29:52;;;;;;;11.75;3.08;;;14.10;99.90;;;;;;4163830;28;20120;-63